createdAt,value
2022-10-30T00:07:11.083Z,11.7
2022-10-30T00:21:11.043Z,11.4
2022-10-30T00:35:11.244Z,11.2
2022-10-30T00:49:11.337Z,11.2
2022-10-30T01:03:11.347Z,11.0
2022-10-30T01:17:11.324Z,11.2
2022-10-30T01:31:11.334Z,11.1
2022-10-30T01:45:11.300Z,11.0
2022-10-30T01:59:11.312Z,10.9
2022-10-30T02:13:11.344Z,10.7
2022-10-30T02:27:11.344Z,10.9
2022-10-30T02:41:11.335Z,11.0
2022-10-30T02:55:11.388Z,11.0
2022-10-30T03:09:11.363Z,11.2
2022-10-30T03:23:11.383Z,11.0
2022-10-30T03:37:11.363Z,10.6
2022-10-30T03:51:11.385Z,11.2
2022-10-30T04:05:11.367Z,11.1
2022-10-30T04:19:11.413Z,10.8
2022-10-30T04:33:11.431Z,10.9
2022-10-30T04:47:11.382Z,10.5
2022-10-30T05:01:11.477Z,10.4
2022-10-30T05:15:11.459Z,10.5
2022-10-30T05:29:11.461Z,10.2
2022-10-30T05:44:11.498Z,10.2
2022-10-30T05:59:11.557Z,10.5
2022-10-30T06:14:11.485Z,10.6
2022-10-30T06:30:11.526Z,10.4
2022-10-30T06:45:11.527Z,10.8
2022-10-30T07:00:11.560Z,11.5
2022-10-30T07:16:11.572Z,12.9
2022-10-30T07:31:11.612Z,15.1
2022-10-30T07:47:11.667Z,17.0
2022-10-30T08:02:11.843Z,19.3
2022-10-30T08:17:11.757Z,20.6
2022-10-30T08:32:11.763Z,21.9
2022-10-30T08:47:11.786Z,22.5
2022-10-30T09:02:11.921Z,23.3
2022-10-30T09:17:11.791Z,23.3
2022-10-30T09:32:11.797Z,23.8
2022-10-30T09:47:11.818Z,23.7
2022-10-30T10:02:11.937Z,23.0
2022-10-30T10:17:11.807Z,22.9
2022-10-30T10:32:11.826Z,22.6
2022-10-30T10:47:11.813Z,22.8
2022-10-30T11:02:11.967Z,22.7
2022-10-30T11:17:11.888Z,23.2
2022-10-30T11:32:11.859Z,23.9
2022-10-30T11:47:11.879Z,24.8
2022-10-30T12:02:12.086Z,24.5
2022-10-30T12:17:12.046Z,24.9
2022-10-30T12:32:12.164Z,25.7
2022-10-30T12:47:12.160Z,26.0
2022-10-30T13:02:12.219Z,25.6
2022-10-30T13:17:12.147Z,26.1
2022-10-30T13:32:12.142Z,25.8
2022-10-30T13:47:12.155Z,26.1
2022-10-30T14:02:12.250Z,26.4
2022-10-30T14:17:12.150Z,26.2
2022-10-30T14:32:12.153Z,26.6
2022-10-30T14:47:12.326Z,26.5
2022-10-30T15:02:12.418Z,26.6
2022-10-30T15:17:12.277Z,24.0
2022-10-30T15:33:12.260Z,21.3
2022-10-30T15:48:12.283Z,19.1
2022-10-30T16:03:12.270Z,17.6
2022-10-30T16:19:12.307Z,17.2
2022-10-30T16:34:12.320Z,16.3
2022-10-30T16:48:12.362Z,15.8
2022-10-30T17:02:12.425Z,15.5
2022-10-30T17:16:12.330Z,15.4
2022-10-30T17:30:12.331Z,14.8
2022-10-30T17:45:12.347Z,14.6
2022-10-30T17:59:12.415Z,14.4
2022-10-30T18:13:12.429Z,14.2
2022-10-30T18:27:12.426Z,14.0
2022-10-30T18:41:12.410Z,14.0
2022-10-30T18:55:12.395Z,13.6
2022-10-30T19:09:12.461Z,13.5
2022-10-30T19:23:12.494Z,13.3
2022-10-30T19:37:12.516Z,13.1
2022-10-30T19:51:12.473Z,12.8
2022-10-30T20:05:12.501Z,12.7
2022-10-30T20:20:12.502Z,12.7
2022-10-30T20:34:12.533Z,12.3
2022-10-30T20:48:12.498Z,12.4
2022-10-30T21:02:12.650Z,12.3
2022-10-30T21:16:12.506Z,12.2
2022-10-30T21:30:12.494Z,12.1
2022-10-30T21:44:12.516Z,12.0
2022-10-30T21:58:12.542Z,12.0
2022-10-30T22:12:12.561Z,11.9
2022-10-30T22:26:12.536Z,11.9
2022-10-30T22:40:12.550Z,11.7
2022-10-30T22:54:12.526Z,11.6
2022-10-30T23:08:12.543Z,11.9
2022-10-30T23:22:12.567Z,11.9
2022-10-30T23:36:12.546Z,11.7
2022-10-30T23:50:12.563Z,11.8
